createdAt,value
2019-01-19T00:01:54.741Z,12.37
2019-01-19T00:05:00.161Z,12.28
2019-01-19T00:07:54.693Z,9.90
2019-01-19T00:10:57.091Z,11.70
2019-01-19T00:13:47.486Z,11.90
2019-01-19T00:16:24.978Z,12.60
2019-01-19T00:19:44.431Z,12.88
2019-01-19T00:22:56.099Z,10.90
2019-01-19T00:26:08.387Z,10.78
2019-01-19T00:28:43.499Z,11.75
2019-01-19T00:31:21.703Z,12.00
2019-01-19T00:34:13.077Z,12.63
2019-01-19T00:36:51.463Z,11.25
2019-01-19T00:39:47.534Z,11.15
2019-01-19T00:42:31.407Z,10.53
2019-01-19T00:45:27.340Z,11.00
2019-01-19T00:48:15.915Z,10.72
2019-01-19T00:51:25.711Z,10.20
2019-01-19T00:54:10.248Z,10.05
2019-01-19T00:57:18.101Z,10.98
2019-01-19T00:59:52.135Z,10.60
2019-01-19T01:03:01.010Z,10.70
2019-01-19T01:06:11.475Z,9.40
2019-01-19T01:09:31.335Z,9.55
2019-01-19T01:12:49.867Z,8.85
2019-01-19T01:16:15.627Z,10.23
2019-01-19T01:19:00.521Z,10.45
2019-01-19T01:21:55.251Z,9.90
2019-01-19T01:24:49.453Z,8.65
2019-01-19T01:28:00.359Z,10.40
2019-01-19T01:31:09.080Z,11.43
2019-01-19T01:34:12.373Z,10.28
2019-01-19T01:37:10.438Z,10.55
2019-01-19T01:40:06.082Z,9.68
2019-01-19T01:42:54.170Z,10.95
2019-01-19T01:46:05.033Z,11.05
2019-01-19T01:48:53.635Z,11.30
2019-01-19T01:51:58.114Z,11.22
2019-01-19T01:55:01.416Z,12.07
2019-01-19T01:58:07.595Z,11.10
2019-01-19T02:00:51.200Z,10.53
2019-01-19T02:03:50.163Z,11.55
2019-01-19T02:07:24.717Z,11.00
2019-01-19T02:10:15.343Z,11.03
2019-01-19T02:13:22.608Z,12.90
2019-01-19T02:16:35.600Z,12.05
2019-01-19T02:19:37.495Z,10.65
2019-01-19T02:22:32.019Z,10.90
2019-01-19T02:25:42.041Z,13.00
2019-01-19T02:28:34.416Z,11.85
2019-01-19T02:31:24.983Z,11.30
2019-01-19T02:34:38.298Z,12.10
2019-01-19T02:37:19.764Z,10.48
2019-01-19T02:40:24.062Z,11.70
2019-01-19T02:43:42.790Z,12.80
2019-01-19T02:46:56.123Z,11.30
2019-01-19T02:50:17.159Z,13.15
2019-01-19T02:52:59.573Z,14.07
2019-01-19T02:56:25.138Z,12.18
2019-01-19T02:59:56.895Z,12.55
2019-01-19T03:03:16.603Z,14.15
2019-01-19T03:06:13.711Z,14.75
2019-01-19T03:09:17.983Z,12.78
2019-01-19T03:12:15.100Z,14.20
2019-01-19T03:15:39.344Z,10.85
2019-01-19T03:18:35.016Z,13.70
2019-01-19T03:21:40.517Z,14.50
2019-01-19T03:25:09.457Z,10.00
2019-01-19T03:28:00.420Z,12.65
2019-01-19T03:31:06.454Z,13.88
2019-01-19T03:34:31.810Z,13.50
2019-01-19T03:37:45.562Z,14.30
2019-01-19T03:40:54.078Z,14.10
2019-01-19T03:44:02.978Z,14.50
2019-01-19T03:47:05.935Z,13.85
2019-01-19T03:50:26.631Z,13.80
2019-01-19T03:53:42.409Z,14.18
2019-01-19T03:56:34.697Z,15.13
2019-01-19T03:59:16.426Z,14.05
2019-01-19T04:02:27.357Z,14.33
2019-01-19T04:05:20.025Z,13.95
2019-01-19T04:08:14.984Z,14.15
2019-01-19T04:11:17.357Z,16.07
2019-01-19T04:14:17.944Z,14.50
2019-01-19T04:17:28.861Z,14.40
2019-01-19T04:20:46.032Z,14.80
2019-01-19T04:23:15.692Z,15.05
2019-01-19T04:25:58.582Z,14.18
2019-01-19T04:28:28.715Z,15.70
2019-01-19T04:30:59.476Z,15.32
2019-01-19T04:33:30.465Z,15.60
2019-01-19T04:36:00.145Z,14.40
2019-01-19T04:38:33.657Z,14.28
2019-01-19T04:41:04.806Z,14.98
2019-01-19T04:43:34.339Z,15.60
2019-01-19T04:46:04.113Z,15.28
2019-01-19T04:48:34.090Z,17.05
2019-01-19T04:51:03.790Z,15.10
2019-01-19T04:53:33.586Z,15.45
2019-01-19T04:56:03.185Z,15.93
2019-01-19T04:58:32.903Z,14.87
2019-01-19T05:01:02.668Z,16.62
2019-01-19T05:03:33.137Z,15.68
2019-01-19T05:06:11.719Z,13.72
2019-01-19T05:08:34.224Z,18.62
2019-01-19T05:11:03.970Z,18.05
2019-01-19T05:13:34.461Z,17.90
2019-01-19T05:16:04.069Z,18.67
2019-01-19T05:18:34.020Z,18.60
2019-01-19T05:21:04.138Z,18.73
2019-01-19T05:23:33.749Z,18.92
2019-01-19T05:26:04.443Z,17.92
2019-01-19T05:28:34.067Z,18.42
2019-01-19T05:31:03.725Z,18.77
2019-01-19T05:33:33.468Z,19.00
2019-01-19T05:36:03.288Z,18.73
2019-01-19T05:38:32.931Z,18.30
2019-01-19T05:41:02.586Z,18.25
2019-01-19T05:43:32.218Z,20.20
2019-01-19T05:46:02.886Z,18.92
2019-01-19T05:48:33.450Z,18.50
2019-01-19T05:51:03.114Z,19.07
2019-01-19T05:53:32.788Z,19.35
2019-01-19T05:56:02.491Z,18.12
2019-01-19T05:58:32.461Z,20.55
2019-01-19T06:01:02.139Z,20.37
2019-01-19T06:03:33.003Z,20.02
2019-01-19T06:06:03.582Z,19.57
2019-01-19T06:08:33.435Z,19.50
2019-01-19T06:11:03.091Z,17.30
2019-01-19T06:13:32.868Z,20.40
2019-01-19T06:16:02.554Z,21.65
2019-01-19T06:18:33.622Z,21.25
2019-01-19T06:21:04.485Z,20.90
2019-01-19T06:23:34.110Z,14.00
2019-01-19T06:26:03.871Z,21.15
2019-01-19T06:28:34.543Z,20.65
2019-01-19T06:31:04.187Z,21.90
2019-01-19T06:33:33.887Z,21.52
2019-01-19T06:36:03.624Z,18.65
2019-01-19T06:38:33.922Z,19.07
2019-01-19T06:41:03.665Z,18.02
2019-01-19T06:43:33.951Z,19.82
2019-01-19T06:46:03.758Z,19.10
2019-01-19T06:48:34.023Z,18.20
2019-01-19T06:51:03.811Z,19.35
2019-01-19T06:53:34.094Z,18.45
2019-01-19T06:56:03.891Z,18.85
2019-01-19T06:58:34.466Z,16.52
2019-01-19T07:01:04.288Z,18.70
2019-01-19T07:03:33.845Z,20.60
2019-01-19T07:06:03.707Z,20.25
2019-01-19T07:08:33.716Z,20.52
2019-01-19T07:11:03.453Z,20.68
2019-01-19T07:13:33.802Z,18.98
2019-01-19T07:16:03.596Z,21.42
2019-01-19T07:18:33.408Z,18.75
2019-01-19T07:21:03.091Z,18.30
2019-01-19T07:23:32.829Z,12.10
2019-01-19T07:26:02.594Z,19.35
2019-01-19T07:28:32.479Z,18.60
2019-01-19T07:31:02.262Z,17.35
2019-01-19T07:33:31.920Z,19.90
2019-01-19T07:36:01.606Z,19.55
2019-01-19T07:38:31.470Z,18.87
2019-01-19T07:41:01.173Z,17.87
2019-01-19T07:43:31.840Z,20.68
2019-01-19T07:46:03.040Z,18.23
2019-01-19T07:48:32.847Z,20.65
2019-01-19T07:51:04.499Z,20.48
2019-01-19T07:53:34.254Z,18.98
2019-01-19T07:56:04.006Z,19.55
2019-01-19T07:58:33.824Z,19.37
2019-01-19T08:01:03.513Z,20.05
2019-01-19T08:03:33.192Z,18.48
2019-01-19T08:06:03.177Z,19.82
2019-01-19T08:08:32.877Z,18.00
2019-01-19T08:11:02.720Z,17.10
2019-01-19T08:13:32.467Z,19.05
2019-01-19T08:16:02.293Z,19.73
2019-01-19T08:18:32.937Z,19.48
2019-01-19T08:21:02.839Z,19.67
2019-01-19T08:23:32.555Z,19.20
2019-01-19T08:26:02.359Z,19.17
2019-01-19T08:28:32.098Z,20.70
2019-01-19T08:31:01.808Z,20.00
2019-01-19T08:33:31.529Z,19.02
2019-01-19T08:36:01.443Z,19.40
2019-01-19T08:38:31.255Z,18.48
2019-01-19T08:41:01.001Z,18.62
2019-01-19T08:43:38.352Z,15.95
2019-01-19T08:46:08.023Z,18.20
2019-01-19T08:48:38.216Z,18.77
2019-01-19T08:51:07.932Z,17.65
2019-01-19T08:53:37.700Z,17.90
2019-01-19T08:56:08.308Z,18.15
2019-01-19T08:58:38.111Z,18.67
2019-01-19T09:01:07.921Z,16.85
2019-01-19T09:03:37.705Z,18.07
2019-01-19T09:06:07.468Z,16.70
2019-01-19T09:08:37.310Z,18.70
2019-01-19T09:11:06.919Z,15.90
2019-01-19T09:13:36.981Z,19.10
2019-01-19T09:16:13.475Z,16.27
2019-01-19T09:18:43.416Z,16.97
2019-01-19T09:21:14.200Z,17.95
2019-01-19T09:24:04.126Z,17.77
2019-01-19T09:26:34.044Z,18.20
2019-01-19T09:29:03.727Z,17.00
2019-01-19T09:31:33.432Z,17.20
2019-01-19T09:34:03.271Z,17.33
2019-01-19T09:36:33.087Z,17.23
2019-01-19T09:39:04.330Z,16.97
2019-01-19T09:41:34.792Z,16.33
2019-01-19T09:44:05.973Z,17.47
2019-01-19T09:46:35.821Z,18.50
2019-01-19T09:49:05.950Z,19.43
2019-01-19T09:51:36.239Z,16.10
2019-01-19T09:54:06.409Z,16.43
2019-01-19T09:56:36.232Z,16.10
2019-01-19T09:59:06.004Z,16.75
2019-01-19T10:01:35.643Z,16.75
2019-01-19T10:04:05.815Z,16.80
2019-01-19T10:06:35.541Z,15.47
2019-01-19T10:09:07.966Z,17.17
2019-01-19T10:11:37.685Z,17.20
2019-01-19T10:14:07.344Z,17.80
2019-01-19T10:16:37.564Z,16.57
2019-01-19T10:19:07.463Z,16.80
2019-01-19T10:21:37.178Z,16.40
2019-01-19T10:24:07.400Z,14.93
2019-01-19T10:26:37.333Z,15.50
2019-01-19T10:29:07.163Z,16.80
2019-01-19T10:31:37.020Z,15.07
2019-01-19T10:34:06.942Z,15.03
2019-01-19T10:36:36.683Z,14.40
2019-01-19T10:39:08.767Z,14.70
2019-01-19T10:41:41.053Z,14.93
2019-01-19T10:44:10.043Z,16.63
2019-01-19T10:46:39.840Z,13.80
2019-01-19T10:49:09.714Z,14.10
2019-01-19T10:51:39.365Z,12.93
2019-01-19T10:54:09.251Z,14.53
2019-01-19T10:56:39.270Z,15.80
2019-01-19T10:59:12.550Z,13.13
2019-01-19T11:01:42.364Z,15.07
2019-01-19T11:04:12.287Z,13.57
2019-01-19T11:06:42.170Z,13.83
2019-01-19T11:09:12.027Z,13.03
2019-01-19T11:11:42.435Z,15.57
2019-01-19T11:14:12.667Z,17.63
2019-01-19T11:16:43.705Z,14.80
2019-01-19T11:19:13.607Z,14.23
2019-01-19T11:21:43.468Z,14.17
2019-01-19T11:24:13.411Z,13.00
2019-01-19T11:26:43.373Z,12.10
2019-01-19T11:29:13.376Z,14.50
2019-01-19T11:31:43.300Z,14.60
2019-01-19T11:34:13.576Z,14.53
2019-01-19T11:36:43.339Z,15.77
2019-01-19T11:39:13.036Z,14.87
2019-01-19T11:41:42.892Z,15.97
2019-01-19T11:44:13.695Z,14.00
2019-01-19T11:46:43.420Z,17.83
2019-01-19T11:49:13.105Z,12.80
2019-01-19T11:51:43.884Z,13.63
2019-01-19T11:54:13.720Z,14.07
2019-01-19T11:56:43.529Z,15.40
2019-01-19T11:59:13.379Z,15.43
2019-01-19T12:01:43.198Z,15.35
2019-01-19T12:04:12.783Z,13.55
2019-01-19T12:06:42.338Z,15.68
2019-01-19T12:09:12.175Z,14.55
2019-01-19T12:11:41.983Z,14.83
2019-01-19T12:14:11.915Z,15.45
2019-01-19T12:16:42.210Z,14.18
2019-01-19T12:19:12.112Z,14.45
2019-01-19T12:21:42.351Z,15.58
2019-01-19T12:24:14.255Z,12.85
2019-01-19T12:26:45.982Z,13.50
2019-01-19T12:29:15.883Z,12.98
2019-01-19T12:31:45.584Z,13.35
2019-01-19T12:34:15.544Z,13.15
2019-01-19T12:36:45.394Z,13.38
2019-01-19T12:39:15.302Z,11.48
2019-01-19T12:41:45.112Z,12.30
2019-01-19T12:44:15.195Z,12.53
2019-01-19T12:46:44.988Z,11.95
2019-01-19T12:49:14.841Z,11.68
2019-01-19T12:51:44.786Z,13.22
2019-01-19T12:54:14.482Z,10.75
2019-01-19T12:56:45.219Z,11.75
2019-01-19T12:59:14.981Z,11.78
2019-01-19T13:01:46.412Z,13.25
2019-01-19T13:04:16.149Z,10.32
2019-01-19T13:06:53.254Z,10.60
2019-01-19T13:09:35.764Z,10.00
2019-01-19T13:12:52.768Z,10.45
2019-01-19T13:15:49.347Z,11.53
2019-01-19T13:18:54.528Z,9.85
2019-01-19T13:22:07.098Z,9.40
2019-01-19T13:25:27.006Z,10.85
2019-01-19T13:28:21.567Z,10.40
2019-01-19T13:31:25.115Z,10.70
2019-01-19T13:34:20.578Z,10.95
2019-01-19T13:37:39.930Z,11.45
2019-01-19T13:41:00.787Z,10.45
2019-01-19T13:44:07.427Z,11.22
2019-01-19T13:47:13.955Z,11.75
2019-01-19T13:50:13.366Z,11.75
2019-01-19T13:52:59.233Z,12.30
2019-01-19T13:56:08.553Z,10.50
2019-01-19T13:59:11.097Z,9.68
2019-01-19T14:02:16.038Z,10.75
2019-01-19T14:05:20.568Z,9.80
2019-01-19T14:08:39.907Z,10.88
2019-01-19T14:12:14.385Z,11.45
2019-01-19T14:15:19.990Z,11.68
2019-01-19T14:18:03.122Z,10.08
2019-01-19T14:21:09.332Z,10.03
2019-01-19T14:24:04.835Z,10.93
2019-01-19T14:27:02.963Z,10.90
2019-01-19T14:29:53.115Z,9.85
2019-01-19T14:32:43.985Z,11.88
2019-01-19T14:35:43.646Z,9.40
2019-01-19T14:38:48.575Z,11.30
2019-01-19T14:41:59.922Z,11.33
2019-01-19T14:45:25.791Z,11.00
2019-01-19T14:48:31.290Z,9.00
2019-01-19T14:51:30.443Z,10.15
2019-01-19T14:54:46.191Z,9.05
2019-01-19T14:57:43.120Z,10.85
2019-01-19T15:00:41.391Z,9.20
2019-01-19T15:03:54.552Z,9.35
2019-01-19T15:07:06.491Z,8.35
2019-01-19T15:10:24.618Z,9.63
2019-01-19T15:13:29.147Z,10.25
2019-01-19T15:16:45.141Z,9.53
2019-01-19T15:19:50.315Z,9.98
2019-01-19T15:23:19.238Z,8.75
2019-01-19T15:26:31.411Z,9.65
2019-01-19T15:29:48.678Z,11.35
2019-01-19T15:32:58.059Z,11.88
2019-01-19T15:35:47.612Z,13.10
2019-01-19T15:39:13.340Z,14.10
2019-01-19T15:42:14.586Z,14.00
2019-01-19T15:45:20.564Z,13.85
2019-01-19T15:48:40.411Z,14.70
2019-01-19T15:53:59.921Z,14.53
2019-01-19T15:56:50.314Z,15.60
2019-01-19T15:59:50.440Z,15.68
2019-01-19T16:03:06.050Z,15.28
2019-01-19T16:06:21.226Z,13.45
2019-01-19T16:09:10.211Z,16.55
2019-01-19T16:12:08.479Z,16.20
2019-01-19T16:15:23.027Z,16.87
2019-01-19T16:18:18.335Z,14.95
2019-01-19T16:21:26.507Z,17.20
2019-01-19T16:24:13.219Z,18.50
2019-01-19T16:27:24.195Z,17.00
2019-01-19T16:30:25.027Z,17.20
2019-01-19T16:33:24.408Z,16.65
2019-01-19T16:36:38.022Z,17.23
2019-01-19T16:39:41.770Z,17.00
2019-01-19T16:43:10.204Z,18.25
2019-01-19T16:46:19.846Z,16.65
2019-01-19T16:49:15.059Z,18.82
2019-01-19T16:52:23.937Z,17.65
2019-01-19T16:55:42.857Z,17.77
2019-01-19T16:58:54.721Z,17.73
2019-01-19T17:01:57.495Z,19.35
2019-01-19T17:05:11.903Z,19.57
2019-01-19T17:08:16.762Z,18.35
2019-01-19T17:11:35.810Z,19.30
2019-01-19T17:14:53.923Z,16.32
2019-01-19T17:17:53.824Z,17.82
2019-01-19T17:21:13.105Z,16.30
2019-01-19T17:24:07.433Z,17.15
2019-01-19T17:27:09.484Z,15.90
2019-01-19T17:30:19.736Z,14.80
2019-01-19T17:33:42.461Z,14.23
2019-01-19T17:36:49.961Z,13.50
2019-01-19T17:40:11.233Z,14.75
2019-01-19T17:43:14.964Z,15.48
2019-01-19T17:46:24.245Z,16.12
2019-01-19T17:49:41.615Z,13.88
2019-01-19T17:52:34.833Z,15.58
2019-01-19T17:55:51.473Z,16.62
2019-01-19T17:58:56.214Z,15.65
2019-01-19T18:02:02.732Z,13.62
2019-01-19T18:05:10.316Z,14.93
2019-01-19T18:08:29.181Z,16.45
2019-01-19T18:11:34.958Z,15.10
2019-01-19T18:14:56.514Z,13.95
2019-01-19T18:18:07.432Z,16.45
2019-01-19T18:21:12.441Z,13.40
2019-01-19T18:24:26.030Z,16.00
2019-01-19T18:27:33.149Z,14.18
2019-01-19T18:30:27.176Z,14.35
2019-01-19T18:33:41.035Z,13.93
2019-01-19T18:36:39.306Z,13.88
2019-01-19T18:39:37.035Z,14.95
2019-01-19T18:42:40.639Z,14.70
2019-01-19T18:46:12.906Z,14.87
2019-01-19T18:49:32.104Z,13.40
2019-01-19T18:52:48.716Z,14.40
2019-01-19T18:55:36.201Z,14.23
2019-01-19T18:58:38.154Z,14.50
2019-01-19T19:02:04.201Z,14.80
2019-01-19T19:05:40.616Z,15.25
2019-01-19T19:09:00.876Z,16.65
2019-01-19T19:12:02.151Z,15.58
2019-01-19T19:14:54.720Z,15.78
2019-01-19T19:18:09.217Z,15.68
2019-01-19T19:21:12.843Z,15.20
2019-01-19T19:24:42.556Z,15.53
2019-01-19T19:27:57.032Z,15.58
2019-01-19T19:31:08.257Z,16.52
2019-01-19T19:33:54.636Z,16.57
2019-01-19T19:36:56.963Z,15.08
2019-01-19T19:40:09.963Z,15.20
2019-01-19T19:43:25.530Z,14.95
2019-01-19T19:46:30.567Z,16.82
2019-01-19T19:49:14.303Z,14.45
2019-01-19T19:52:03.847Z,14.47
2019-01-19T19:54:35.279Z,13.83
2019-01-19T19:57:05.558Z,13.93
2019-01-19T19:59:35.986Z,14.68
2019-01-19T20:02:05.904Z,14.55
2019-01-19T20:04:35.732Z,14.87
2019-01-19T20:07:06.233Z,14.63
2019-01-19T20:09:37.838Z,14.55
2019-01-19T20:12:11.348Z,14.35
2019-01-19T20:14:41.015Z,14.58
2019-01-19T20:17:12.035Z,14.93
2019-01-19T20:19:42.002Z,15.45
2019-01-19T20:22:12.022Z,14.53
2019-01-19T20:24:41.750Z,15.45
2019-01-19T20:27:11.489Z,17.07
2019-01-19T20:29:41.174Z,20.52
2019-01-19T20:32:10.918Z,17.12
2019-01-19T20:34:41.715Z,15.60
2019-01-19T20:37:11.356Z,16.35
2019-01-19T20:39:41.637Z,17.77
2019-01-19T20:42:11.373Z,13.68
2019-01-19T20:44:41.512Z,16.25
2019-01-19T20:47:11.262Z,16.70
2019-01-19T20:49:41.849Z,18.05
2019-01-19T20:52:11.672Z,17.02
2019-01-19T20:54:41.592Z,17.75
2019-01-19T20:57:11.553Z,18.67
2019-01-19T20:59:41.952Z,17.82
2019-01-19T21:02:12.658Z,17.75
2019-01-19T21:04:43.068Z,19.20
2019-01-19T21:07:13.002Z,18.73
2019-01-19T21:09:46.214Z,17.42
2019-01-19T21:12:16.065Z,17.17
2019-01-19T21:14:45.780Z,17.82
2019-01-19T21:17:15.595Z,18.40
2019-01-19T21:19:45.967Z,20.65
2019-01-19T21:22:15.971Z,19.12
2019-01-19T21:24:46.394Z,18.45
2019-01-19T21:27:16.106Z,20.82
2019-01-19T21:29:46.570Z,19.60
2019-01-19T21:32:17.631Z,19.70
2019-01-19T21:34:47.524Z,20.82
2019-01-19T21:37:17.443Z,21.42
2019-01-19T21:39:47.615Z,21.12
2019-01-19T21:42:17.323Z,19.00
2019-01-19T21:44:47.241Z,19.85
2019-01-19T21:47:17.015Z,21.62
2019-01-19T21:49:46.827Z,22.90
2019-01-19T21:52:16.656Z,21.60
2019-01-19T21:54:46.364Z,22.25
2019-01-19T21:57:16.170Z,21.45
2019-01-19T21:59:45.899Z,22.20
2019-01-19T22:02:15.843Z,20.02
2019-01-19T22:04:45.612Z,21.48
2019-01-19T22:07:15.666Z,21.62
2019-01-19T22:09:46.228Z,21.95
2019-01-19T22:12:17.126Z,20.70
2019-01-19T22:14:47.343Z,21.55
2019-01-19T22:17:17.569Z,23.00
2019-01-19T22:19:47.293Z,23.25
2019-01-19T22:22:17.391Z,22.82
2019-01-19T22:24:47.790Z,21.97
2019-01-19T22:27:18.655Z,21.82
2019-01-19T22:29:48.461Z,24.47
2019-01-19T22:32:18.272Z,23.25
2019-01-19T22:34:48.110Z,23.32
2019-01-19T22:37:18.002Z,22.50
2019-01-19T22:39:47.727Z,24.65
2019-01-19T22:42:17.501Z,22.40
2019-01-19T22:44:47.419Z,25.40
2019-01-19T22:47:17.104Z,22.98
2019-01-19T22:49:47.423Z,23.73
2019-01-19T22:52:17.057Z,25.90
2019-01-19T22:54:47.630Z,24.10
2019-01-19T22:57:17.444Z,24.90
2019-01-19T22:59:47.148Z,23.00
2019-01-19T23:02:16.917Z,23.73
2019-01-19T23:04:46.552Z,25.43
2019-01-19T23:07:16.359Z,24.57
2019-01-19T23:09:46.162Z,24.15
2019-01-19T23:12:15.939Z,24.87
2019-01-19T23:14:46.122Z,25.08
2019-01-19T23:17:15.936Z,23.83
2019-01-19T23:19:45.751Z,25.57
2019-01-19T23:22:15.733Z,25.25
2019-01-19T23:24:46.330Z,26.33
2019-01-19T23:27:16.110Z,24.95
2019-01-19T23:29:45.859Z,24.85
2019-01-19T23:32:15.674Z,25.43
2019-01-19T23:34:45.340Z,25.75
2019-01-19T23:37:15.656Z,26.02
2019-01-19T23:39:45.683Z,27.87
2019-01-19T23:42:15.771Z,25.05
2019-01-19T23:44:45.547Z,27.10
2019-01-19T23:47:15.361Z,25.55
2019-01-19T23:49:45.343Z,24.75
2019-01-19T23:52:15.142Z,26.25
2019-01-19T23:54:44.978Z,25.80
2019-01-19T23:57:15.155Z,26.37
2019-01-19T23:59:44.959Z,24.87
